Time;durP1;ratioP1;P1;durP2;ratioP2;P2;SDS_P1;SDS_P2;PMS_P1;PMS_P2;Temp;Humidity;BMP_temperature;BMP_pressure;BME280_temperature;BME280_humidity;BME280_pressure;Samples;Min_cycle;Max_cycle;Signal;HPM_P1;HPM_P2
2022/11/04 05:32:00;;;;;;;;;0.00;0.00;;;;;-147.14;100.00;58812.66;5209278;23;46065;-63
2022/11/04 05:34:25;;;;;;;;;1.67;0.67;;;;;-147.14;100.00;58812.66;4983816;28;45419;-63
2022/11/04 05:36:50;;;;;;;;;0.33;0.33;;;;;-147.14;100.00;58812.66;4985095;28;67767;-63
2022/11/04 05:39:16;;;;;;;;;1.33;0.00;;;;;-147.14;100.00;58812.66;4989858;28;45626;-63
2022/11/04 05:41:41;;;;;;;;;0.00;0.00;;;;;-147.14;100.00;58812.66;4990416;28;45527;-63
2022/11/04 05:44:08;;;;;;;;;1.00;1.00;;;;;-147.14;100.00;58812.66;4985225;28;45425;-63
2022/11/04 05:46:33;;;;;;;;;1.00;1.00;;;;;-147.14;100.00;58812.66;4978909;28;46873;-63
2022/11/04 05:48:59;;;;;;;;;0.00;0.00;;;;;-147.14;100.00;58812.66;4984406;28;61155;-63
2022/11/04 05:51:26;;;;;;;;;1.00;1.00;;;;;-147.14;100.00;58812.66;4981089;28;70783;-63
2022/11/04 05:53:52;;;;;;;;;2.33;1.00;;;;;-147.14;100.00;58812.66;4985292;28;45282;-63
2022/11/04 05:56:17;;;;;;;;;0.00;0.00;;;;;-147.14;100.00;58812.66;4981519;28;45373;-63
2022/11/04 05:58:43;;;;;;;;;0.67;0.67;;;;;-147.14;100.00;58812.66;4978583;28;45393;-63
2022/11/04 06:01:21;;;;;;;;;2.00;0.67;;;;;-147.14;100.00;58812.66;4986698;28;72395;-63
2022/11/04 06:03:46;;;;;;;;;2.33;1.00;;;;;-147.14;100.00;58812.66;4989164;28;45409;-63
2022/11/04 06:06:12;;;;;;;;;0.00;0.00;;;;;-147.14;100.00;58812.66;4983597;28;64073;-63
2022/11/04 06:08:37;;;;;;;;;1.00;0.00;;;;;-147.14;100.00;58812.66;4984091;28;64217;-63
2022/11/04 06:11:04;;;;;;;;;0.00;0.00;;;;;-147.14;100.00;58812.66;4980819;28;45959;-63
2022/11/04 06:13:29;;;;;;;;;1.00;1.00;;;;;-147.14;100.00;58812.66;4989305;28;45523;-63
2022/11/04 06:15:54;;;;;;;;;0.00;0.00;;;;;-147.14;100.00;58812.66;4996572;28;45426;-62
2022/11/04 06:18:20;;;;;;;;;0.00;0.00;;;;;-147.14;100.00;58812.66;4991177;28;65003;-63
2022/11/04 06:20:45;;;;;;;;;2.00;0.67;;;;;-147.14;100.00;58812.66;4981143;28;71801;-63
2022/11/04 06:23:10;;;;;;;;;0.33;0.33;;;;;-147.14;100.00;58812.66;4983557;28;70875;-63
2022/11/04 06:25:36;;;;;;;;;1.00;1.00;;;;;-147.14;100.00;58812.66;4999026;28;45516;-63
2022/11/04 06:28:01;;;;;;;;;1.00;0.00;;;;;-147.14;100.00;58812.66;4988253;28;62418;-63
2022/11/04 06:30:26;;;;;;;;;1.00;0.00;;;;;-147.14;100.00;58812.66;4988804;28;67254;-63
2022/11/04 06:32:52;;;;;;;;;4.00;0.33;;;;;-147.14;100.00;58812.66;4986458;28;45573;-62
2022/11/04 06:35:17;;;;;;;;;2.33;0.00;;;;;-147.14;100.00;58812.66;4988160;28;56084;-62
2022/11/04 06:37:42;;;;;;;;;2.00;1.00;;;;;-147.14;100.00;58812.66;4989615;28;65631;-62
2022/11/04 06:40:08;;;;;;;;;2.33;1.00;;;;;-147.14;100.00;58812.66;4988336;28;66877;-62
2022/11/04 06:42:33;;;;;;;;;1.00;1.00;;;;;-147.14;100.00;58812.66;4988970;28;45452;-62
2022/11/04 06:44:59;;;;;;;;;1.00;1.00;;;;;-147.14;100.00;58812.66;4989311;28;63226;-62
2022/11/04 06:47:24;;;;;;;;;2.67;1.00;;;;;-147.14;100.00;58812.66;4980423;28;58630;-62
2022/11/04 06:49:49;;;;;;;;;2.67;1.00;;;;;-147.14;100.00;58812.66;4980491;28;45349;-63
2022/11/04 06:52:14;;;;;;;;;1.00;0.00;;;;;-147.14;100.00;58812.66;4986021;28;71632;-62
2022/11/04 06:54:40;;;;;;;;;1.67;1.00;;;;;-147.14;100.00;58812.66;4989305;28;58676;-62
2022/11/04 06:57:05;;;;;;;;;0.00;0.00;;;;;-147.14;100.00;58812.66;4987379;28;45611;-63
2022/11/04 06:59:30;;;;;;;;;4.00;1.00;;;;;-147.14;100.00;58812.66;4990600;28;47234;-63
2022/11/04 07:01:56;;;;;;;;;1.67;0.00;;;;;-147.14;100.00;58812.66;4985781;28;66694;-63
2022/11/04 07:04:21;;;;;;;;;2.33;0.67;;;;;-147.14;100.00;58812.66;4988629;28;45507;-63
2022/11/04 07:06:47;;;;;;;;;2.33;1.00;;;;;-147.14;100.00;58812.66;4988691;28;64468;-63
2022/11/04 07:09:13;;;;;;;;;2.00;0.00;;;;;-147.14;100.00;58812.66;4986647;28;45709;-62
2022/11/04 07:11:40;;;;;;;;;1.00;1.00;;;;;-147.14;100.00;58812.66;4990805;28;45787;-63
2022/11/04 07:14:05;;;;;;;;;3.00;2.00;;;;;-147.14;100.00;58812.66;4988694;28;45461;-63
2022/11/04 07:16:31;;;;;;;;;2.00;1.67;;;;;-147.14;100.00;58812.66;4989606;28;45538;-63
2022/11/04 07:18:56;;;;;;;;;3.00;1.00;;;;;-147.14;100.00;58812.66;4980441;28;65373;-63
2022/11/04 07:21:22;;;;;;;;;1.00;1.00;;;;;-147.14;100.00;58812.66;4980361;28;45624;-63
2022/11/04 07:23:47;;;;;;;;;2.00;1.00;;;;;-147.14;100.00;58812.66;4979214;28;62966;-63
2022/11/04 07:26:13;;;;;;;;;3.33;1.00;;;;;-147.14;100.00;58812.66;4990738;28;45328;-63
2022/11/04 07:28:39;;;;;;;;;4.00;2.00;;;;;-147.14;100.00;58812.66;4981540;28;47182;-63
2022/11/04 07:31:05;;;;;;;;;1.00;0.00;;;;;-147.14;100.00;58812.66;4991623;28;45363;-62
2022/11/04 07:33:32;;;;;;;;;2.67;1.00;;;;;-147.14;100.00;58812.66;4983678;28;45489;-61
2022/11/04 07:35:58;;;;;;;;;4.00;1.33;;;;;-147.14;100.00;58812.66;4979771;28;45755;-61
2022/11/04 07:38:23;;;;;;;;;3.00;1.00;;;;;-147.14;100.00;58812.66;4979843;28;46084;-60
2022/11/04 07:40:48;;;;;;;;;1.00;1.00;;;;;-147.14;100.00;58812.66;4979378;28;45381;-61
2022/11/04 07:43:15;;;;;;;;;3.00;1.00;;;;;-147.14;100.00;58812.66;4979982;28;45293;-60
2022/11/04 07:45:40;;;;;;;;;1.67;1.00;;;;;-147.14;100.00;58812.66;4990093;28;45478;-60
2022/11/04 07:48:06;;;;;;;;;1.33;1.33;;;;;-147.14;100.00;58812.66;4994779;28;50981;-60
2022/11/04 07:50:32;;;;;;;;;2.00;2.00;;;;;-147.14;100.00;58812.66;4986246;28;45488;-60
2022/11/04 07:52:58;;;;;;;;;2.00;2.00;;;;;-147.14;100.00;58812.66;4988822;28;45452;-60
2022/11/04 07:55:23;;;;;;;;;1.67;1.00;;;;;-147.14;100.00;58812.66;4987476;28;45384;-60
2022/11/04 07:57:49;;;;;;;;;2.00;0.67;;;;;-147.14;100.00;58812.66;4978107;28;68541;-60
2022/11/04 08:00:15;;;;;;;;;2.67;1.00;;;;;-147.14;100.00;58812.66;4988868;28;59631;-60
2022/11/04 08:02:45;;;;;;;;;2.33;1.00;;;;;-147.14;100.00;58812.66;4979624;28;45439;-60
2022/11/04 08:05:14;;;;;;;;;1.00;1.00;;;;;-147.14;100.00;58812.66;4985763;28;45468;-60
2022/11/04 08:07:40;;;;;;;;;1.00;1.00;;;;;-147.14;100.00;58812.66;4982823;28;47479;-60
2022/11/04 08:10:07;;;;;;;;;5.00;2.00;;;;;-147.14;100.00;58812.66;4991237;28;45388;-60
2022/11/04 08:12:33;;;;;;;;;3.67;1.67;;;;;-147.14;100.00;58812.66;4979560;28;45364;-60
2022/11/04 08:14:59;;;;;;;;;4.67;2.00;;;;;-147.14;100.00;58812.66;4979084;28;45550;-60
2022/11/04 08:17:24;;;;;;;;;1.00;1.00;;;;;-147.14;100.00;58812.66;4979465;28;46128;-60
2022/11/04 08:19:49;;;;;;;;;1.67;1.00;;;;;-147.14;100.00;58812.66;4978199;28;67715;-60
2022/11/04 08:22:15;;;;;;;;;1.33;1.33;;;;;-147.14;100.00;58812.66;4979171;28;45700;-60
2022/11/04 08:24:40;;;;;;;;;4.67;2.00;;;;;-147.14;100.00;58812.66;4980723;28;45333;-60
2022/11/04 08:27:09;;;;;;;;;4.67;2.67;;;;;-147.14;100.00;58812.66;4989083;28;45928;-60
2022/11/04 08:29:35;;;;;;;;;1.00;1.00;;;;;-147.14;100.00;58812.66;4987440;28;45394;-60
2022/11/04 08:32:00;;;;;;;;;1.00;1.00;;;;;-147.14;100.00;58812.66;4980760;28;45400;-60
2022/11/04 08:34:26;;;;;;;;;3.00;1.00;;;;;-147.14;100.00;58812.66;4983513;28;64508;-60
2022/11/04 08:36:56;;;;;;;;;6.00;1.00;;;;;-147.14;100.00;58812.66;4982197;28;69323;-60
2022/11/04 08:39:22;;;;;;;;;1.67;1.00;;;;;-147.14;100.00;58812.66;4991106;28;45415;-60
2022/11/04 08:41:49;;;;;;;;;1.67;1.00;;;;;-147.14;100.00;58812.66;4989502;28;45248;-60
2022/11/04 08:44:14;;;;;;;;;1.33;0.33;;;;;-147.14;100.00;58812.66;4990610;28;45735;-60
2022/11/04 08:46:41;;;;;;;;;3.00;2.00;;;;;-147.14;100.00;58812.66;4980393;28;46212;-60
2022/11/04 08:49:07;;;;;;;;;1.00;1.00;;;;;-147.14;100.00;58812.66;4990639;28;45509;-60
2022/11/04 08:51:33;;;;;;;;;1.00;1.00;;;;;-147.14;100.00;58812.66;4983859;28;45461;-60
2022/11/04 08:53:59;;;;;;;;;4.00;2.00;;;;;-147.14;100.00;58812.66;4995205;28;45444;-60
2022/11/04 08:56:29;;;;;;;;;3.00;2.67;;;;;-147.14;100.00;58812.66;4983608;28;46990;-60
2022/11/04 08:58:57;;;;;;;;;1.00;1.00;;;;;-147.14;100.00;58812.66;4990033;28;45359;-60
2022/11/04 09:01:23;;;;;;;;;1.67;1.00;;;;;-147.14;100.00;58812.66;4983343;28;45475;-60
2022/11/04 09:03:49;;;;;;;;;1.00;1.00;;;;;-147.14;100.00;58812.66;4979098;28;45405;-60
2022/11/04 09:06:19;;;;;;;;;5.00;1.00;;;;;-147.14;100.00;58812.66;4985271;28;45388;-60
2022/11/04 09:08:45;;;;;;;;;1.00;1.00;;;;;-147.14;100.00;58812.66;4991355;28;45420;-60
2022/11/04 09:11:12;;;;;;;;;3.33;2.00;;;;;-147.14;100.00;58812.66;4979406;28;45431;-60
2022/11/04 09:13:39;;;;;;;;;2.67;1.00;;;;;-147.14;100.00;58812.66;4982707;28;45261;-60
2022/11/04 09:16:05;;;;;;;;;3.00;2.00;;;;;-147.14;100.00;58812.66;4990757;28;45605;-60
2022/11/04 09:18:30;;;;;;;;;2.00;2.00;;;;;-147.14;100.00;58812.66;4986189;28;45819;-60
2022/11/04 09:20:59;;;;;;;;;0.67;0.33;;;;;-147.14;100.00;58812.66;4981853;28;63076;-60
2022/11/04 09:23:25;;;;;;;;;2.00;1.33;;;;;-147.14;100.00;58812.66;4990626;28;45604;-60
2022/11/04 09:25:50;;;;;;;;;1.00;1.00;;;;;-147.14;100.00;58812.66;4986716;28;46282;-60
2022/11/04 09:28:15;;;;;;;;;2.00;1.00;;;;;-147.14;100.00;58812.66;4980955;28;46609;-60
2022/11/04 09:30:41;;;;;;;;;1.00;1.00;;;;;-147.14;100.00;58812.66;4983541;28;55108;-60
2022/11/04 09:33:06;;;;;;;;;0.00;0.00;;;;;-147.14;100.00;58812.66;4987300;28;51616;-60
2022/11/04 09:35:31;;;;;;;;;2.33;1.33;;;;;-147.14;100.00;58812.66;4977525;28;70501;-60
2022/11/04 09:37:59;;;;;;;;;2.00;0.67;;;;;-147.14;100.00;58812.66;4988081;28;45378;-60
2022/11/04 09:40:25;;;;;;;;;4.67;3.00;;;;;-147.14;100.00;58812.66;4997779;28;45426;-60
2022/11/04 09:43:14;;;;;;;;;2.33;1.33;;;;;-147.14;100.00;58812.66;4995863;28;45668;-60
2022/11/04 09:45:41;;;;;;;;;1.33;0.67;;;;;-147.14;100.00;58812.66;4986810;28;45372;-60
2022/11/04 09:48:12;;;;;;;;;1.00;0.00;;;;;-147.14;100.00;58812.66;4984272;28;45456;-61
2022/11/04 09:50:46;;;;;;;;;2.33;1.33;;;;;-147.14;100.00;58812.66;4992192;28;45441;-60
2022/11/04 09:53:35;;;;;;;;;2.00;0.00;;;;;-147.14;100.00;58812.66;4987698;28;45480;-60
2022/11/04 09:56:05;;;;;;;;;0.67;0.00;;;;;-147.14;100.00;58812.66;4987499;28;45624;-60
2022/11/04 09:58:36;;;;;;;;;3.00;2.00;;;;;-147.14;100.00;58812.66;4988789;28;45340;-60
2022/11/04 10:01:27;;;;;;;;;4.00;0.67;;;;;-147.14;100.00;58812.66;4981658;28;45349;-60
2022/11/04 10:04:28;;;;;;;;;1.33;0.33;;;;;-147.14;100.00;58812.66;4991277;28;45307;-60
2022/11/04 10:07:10;;;;;;;;;2.00;1.00;;;;;-147.14;100.00;58812.66;4928337;28;46163;-60
2022/11/04 10:10:00;;;;;;;;;1.00;1.00;;;;;-147.14;100.00;58812.66;4977075;28;45492;-60
2022/11/04 10:12:48;;;;;;;;;0.00;0.00;;;;;-147.14;100.00;58812.66;4983325;28;45433;-59
2022/11/04 10:15:45;;;;;;;;;0.67;0.67;;;;;-147.14;100.00;58812.66;4996516;28;45704;-59
2022/11/04 10:18:18;;;;;;;;;0.67;0.67;;;;;-147.14;100.00;58812.66;4990457;28;46138;-59
2022/11/04 10:20:46;;;;;;;;;5.00;1.67;;;;;-147.14;100.00;58812.66;4983586;28;45398;-61
2022/11/04 10:23:33;;;;;;;;;1.00;1.00;;;;;-147.14;100.00;58812.66;4987303;28;45476;-61
2022/11/04 10:26:08;;;;;;;;;0.00;0.00;;;;;-147.14;100.00;58812.66;4981371;28;45479;-61
2022/11/04 10:28:39;;;;;;;;;2.00;0.25;;;;;-147.14;100.00;58812.66;4987530;28;46293;-61
2022/11/04 10:31:05;;;;;;;;;0.00;0.00;;;;;-147.14;100.00;58812.66;4987255;28;45420;-61
2022/11/04 10:33:37;;;;;;;;;0.00;0.00;;;;;-147.14;100.00;58812.66;4994579;28;45455;-61
2022/11/04 10:36:08;;;;;;;;;0.00;0.00;;;;;-147.14;100.00;58812.66;4986613;28;45573;-61
2022/11/04 10:38:51;;;;;;;;;1.00;0.00;;;;;-147.14;100.00;58812.66;4990418;28;45364;-61
2022/11/04 10:41:20;;;;;;;;;3.00;2.00;;;;;-147.14;100.00;58812.66;4982441;28;45763;-61
2022/11/04 10:43:46;;;;;;;;;1.00;0.00;;;;;-147.14;100.00;58812.66;4997084;28;45413;-61
2022/11/04 10:46:51;;;;;;;;;0.00;0.00;;;;;-147.14;100.00;58812.66;4985303;28;55419;-61
2022/11/04 10:49:51;;;;;;;;;0.25;0.25;;;;;-147.14;100.00;58812.66;4964744;28;45870;-61
2022/11/04 10:52:16;;;;;;;;;1.00;1.00;;;;;-147.14;100.00;58812.66;4983121;28;45544;-61
2022/11/04 10:54:45;;;;;;;;;1.00;1.00;;;;;-147.14;100.00;58812.66;4990074;28;63661;-61
2022/11/04 10:57:12;;;;;;;;;1.00;1.00;;;;;-147.14;100.00;58812.66;4990294;28;45450;-61
2022/11/04 10:59:56;;;;;;;;;1.00;1.00;;;;;-147.14;100.00;58812.66;4990536;28;46578;-61
2022/11/04 11:02:36;;;;;;;;;2.00;2.00;;;;;-147.14;100.00;58812.66;4982880;28;45290;-61
2022/11/04 11:05:13;;;;;;;;;1.00;1.00;;;;;-147.14;100.00;58812.66;4984734;28;45494;-61
2022/11/04 11:07:39;;;;;;;;;1.00;0.00;;;;;-147.14;100.00;58812.66;4984256;28;45405;-61
2022/11/04 11:10:06;;;;;;;;;0.00;0.00;;;;;-147.14;100.00;58812.66;4987934;28;73278;-61
2022/11/04 11:12:39;;;;;;;;;0.00;0.00;;;;;-147.14;100.00;58812.66;4985512;28;45408;-61
2022/11/04 11:15:29;;;;;;;;;0.00;0.00;;;;;-147.14;100.00;58812.66;4989496;28;45499;-61
2022/11/04 11:17:59;;;;;;;;;2.00;0.50;;;;;-147.14;100.00;58812.66;4990205;28;45380;-61
2022/11/04 11:20:26;;;;;;;;;1.00;0.00;;;;;-147.14;100.00;58812.66;4998066;28;45409;-61
2022/11/04 11:22:53;;;;;;;;;1.00;0.00;;;;;-147.14;100.00;58812.66;4986516;28;45362;-61
2022/11/04 11:25:24;;;;;;;;;1.00;0.00;;;;;-147.14;100.00;58812.66;4990431;28;45200;-61
2022/11/04 11:27:52;;;;;;;;;0.00;0.00;;;;;-147.14;100.00;58812.66;4983004;28;45515;-61
2022/11/04 11:30:44;;;;;;;;;1.00;0.00;;;;;-147.14;100.00;58812.66;4987379;28;46575;-61
2022/11/04 11:33:22;;;;;;;;;0.00;0.00;;;;;-147.14;100.00;58812.66;4986572;28;45380;-61
2022/11/04 11:36:11;;;;;;;;;1.00;1.00;;;;;-147.14;100.00;58812.66;4986556;28;45445;-61
2022/11/04 11:38:38;;;;;;;;;0.00;0.00;;;;;-147.14;100.00;58812.66;4988583;28;45724;-61
2022/11/04 11:41:07;;;;;;;;;2.67;0.67;;;;;-147.14;100.00;58812.66;4992113;28;46806;-61
2022/11/04 11:43:34;;;;;;;;;0.67;0.67;;;;;-147.14;100.00;58812.66;4980843;28;45397;-61
2022/11/04 11:46:00;;;;;;;;;0.00;0.00;;;;;-147.14;100.00;58812.66;4985564;28;45492;-61
2022/11/04 11:48:37;;;;;;;;;0.00;0.00;;;;;-147.14;100.00;58812.66;4982090;28;45348;-61
2022/11/04 11:51:03;;;;;;;;;0.00;0.00;;;;;-147.14;100.00;58812.66;4985519;28;46380;-61
2022/11/04 11:53:29;;;;;;;;;1.00;1.00;;;;;-147.14;100.00;58812.66;4985423;28;45431;-61
2022/11/04 11:56:00;;;;;;;;;0.00;0.00;;;;;-147.14;100.00;58812.66;4988134;28;45475;-61
2022/11/04 11:58:37;;;;;;;;;0.00;0.00;;;;;-147.14;100.00;58812.66;4988081;28;45519;-61
2022/11/04 12:01:22;;;;;;;;;1.33;0.67;;;;;-147.14;100.00;58812.66;4997601;28;46197;-61
2022/11/04 12:03:48;;;;;;;;;0.67;0.67;;;;;-147.14;100.00;58812.66;4986288;28;45405;-61
2022/11/04 12:06:14;;;;;;;;;0.00;0.00;;;;;-147.14;100.00;58812.66;4988177;28;45344;-61
2022/11/04 12:08:54;;;;;;;;;0.67;0.67;;;;;-147.14;100.00;58812.66;4982628;28;45510;-61
2022/11/04 12:11:46;;;;;;;;;2.33;1.00;;;;;-147.14;100.00;58812.66;4989585;28;46134;-61
2022/11/04 12:14:31;;;;;;;;;3.67;1.67;;;;;-147.14;100.00;58812.66;4985206;28;45365;-61
2022/11/04 12:17:03;;;;;;;;;1.33;1.33;;;;;-147.14;100.00;58812.66;4967427;28;45612;-61
2022/11/04 12:19:31;;;;;;;;;1.00;1.00;;;;;-147.14;100.00;58812.66;4990156;28;45503;-61
2022/11/04 12:22:07;;;;;;;;;1.00;0.67;;;;;-147.14;100.00;58812.66;4992411;28;45459;-61
2022/11/04 12:24:54;;;;;;;;;2.67;1.67;;;;;-147.14;100.00;58812.66;4988882;28;45353;-61
2022/11/04 12:27:30;;;;;;;;;0.00;0.00;;;;;-147.14;100.00;58812.66;4983941;28;45351;-61
2022/11/04 12:30:06;;;;;;;;;0.33;0.33;;;;;-147.14;100.00;58812.66;4984569;28;45361;-61
2022/11/04 12:32:43;;;;;;;;;0.67;0.67;;;;;-147.14;100.00;58812.66;4983645;28;45251;-61
2022/11/04 12:35:17;;;;;;;;;1.00;1.00;;;;;-147.14;100.00;58812.66;4991642;28;45473;-61
2022/11/04 12:38:18;;;;;;;;;2.67;2.00;;;;;-147.14;100.00;58812.66;4979638;28;45449;-61
2022/11/04 12:41:11;;;;;;;;;1.67;0.67;;;;;-147.14;100.00;58812.66;4960982;28;45559;-61
2022/11/04 12:43:47;;;;;;;;;1.00;0.33;;;;;-147.14;100.00;58812.66;4998395;28;46150;-61
2022/11/04 12:46:16;;;;;;;;;4.00;1.00;;;;;-147.14;100.00;58812.66;4986619;28;45475;-61
2022/11/04 12:48:52;;;;;;;;;0.67;0.67;;;;;-147.14;100.00;58812.66;4986502;28;45468;-61
2022/11/04 12:51:27;;;;;;;;;4.33;2.67;;;;;-147.14;100.00;58812.66;4980085;28;45404;-61
2022/11/04 12:54:00;;;;;;;;;1.33;1.00;;;;;-147.14;100.00;58812.66;4990435;28;46438;-61
2022/11/04 12:56:37;;;;;;;;;1.00;1.00;;;;;-147.14;100.00;58812.66;4991619;28;45242;-61
2022/11/04 12:59:14;;;;;;;;;2.67;1.00;;;;;-147.14;100.00;58812.66;4980887;28;45469;-61
2022/11/04 13:02:01;;;;;;;;;1.00;1.00;;;;;-147.14;100.00;58812.66;4979236;28;45558;-61
2022/11/04 13:04:41;;;;;;;;;2.00;1.67;;;;;-147.14;100.00;58812.66;4983896;28;47306;-61
2022/11/04 13:07:09;;;;;;;;;1.00;1.00;;;;;-147.14;100.00;58812.66;4991315;28;45837;-61
2022/11/04 13:09:45;;;;;;;;;0.33;0.33;;;;;-147.14;100.00;58812.66;4982208;28;45475;-61
2022/11/04 13:12:14;;;;;;;;;2.00;0.00;;;;;-147.14;100.00;58812.66;4992663;28;45494;-62
2022/11/04 13:14:54;;;;;;;;;0.00;0.00;;;;;-147.14;100.00;58812.66;4983172;28;46084;-61
2022/11/04 13:17:30;;;;;;;;;2.67;2.00;;;;;-147.14;100.00;58812.66;4994435;28;45453;-62
2022/11/04 13:19:59;;;;;;;;;2.67;1.67;;;;;-147.14;100.00;58812.66;4990466;28;45751;-61
2022/11/04 13:22:28;;;;;;;;;1.00;1.00;;;;;-147.14;100.00;58812.66;4978655;28;45443;-61
2022/11/04 13:24:58;;;;;;;;;2.00;1.00;;;;;-147.14;100.00;58812.66;4979921;28;45762;-61
2022/11/04 13:27:33;;;;;;;;;1.33;1.33;;;;;-147.14;100.00;58812.66;4980525;28;45478;-61
2022/11/04 13:30:06;;;;;;;;;3.00;2.00;;;;;-147.14;100.00;58812.66;4986875;28;45514;-61
2022/11/04 13:32:42;;;;;;;;;1.00;0.67;;;;;-147.14;100.00;58812.66;4988584;28;45380;-60
2022/11/04 13:35:25;;;;;;;;;3.00;2.00;;;;;-147.14;100.00;58812.66;4993217;28;45479;-60
2022/11/04 13:38:11;;;;;;;;;1.33;1.33;;;;;-147.14;100.00;58812.66;4981406;28;45473;-60
2022/11/04 13:41:02;;;;;;;;;0.67;0.67;;;;;-147.14;100.00;58812.66;4982490;28;45433;-60
2022/11/04 13:43:39;;;;;;;;;3.33;0.33;;;;;-147.14;100.00;58812.66;4981011;28;45531;-60
2022/11/04 13:46:17;;;;;;;;;1.67;0.67;;;;;-147.14;100.00;58812.66;4987587;28;47056;-60
2022/11/04 13:49:16;;;;;;;;;0.67;0.67;;;;;-147.14;100.00;58812.66;4979747;28;45380;-61
2022/11/04 13:51:47;;;;;;;;;1.00;1.00;;;;;-147.14;100.00;58812.66;4979177;28;45383;-60
2022/11/04 13:54:26;;;;;;;;;0.67;0.67;;;;;-147.14;100.00;58812.66;4979896;28;45371;-60
2022/11/04 13:57:06;;;;;;;;;0.00;0.00;;;;;-147.14;100.00;58812.66;4979197;28;45274;-60
2022/11/04 13:59:32;;;;;;;;;1.00;0.67;;;;;-147.14;100.00;58812.66;4977936;28;45467;-60
2022/11/04 14:02:10;;;;;;;;;0.67;0.67;;;;;-147.14;100.00;58812.66;4982777;28;45386;-59
2022/11/04 14:04:37;;;;;;;;;1.00;1.00;;;;;-147.14;100.00;58812.66;4978075;28;45503;-60
2022/11/04 14:07:03;;;;;;;;;0.33;0.33;;;;;-147.14;100.00;58812.66;4986269;28;45504;-60
2022/11/04 14:09:32;;;;;;;;;3.00;1.00;;;;;-147.14;100.00;58812.66;4986729;28;45402;-60
2022/11/04 14:12:09;;;;;;;;;1.67;1.67;;;;;-147.14;100.00;58812.66;4980278;28;45287;-60
2022/11/04 14:14:36;;;;;;;;;3.00;1.33;;;;;-147.14;100.00;58812.66;4989170;28;45424;-60
2022/11/04 14:17:05;;;;;;;;;2.33;2.33;;;;;-147.14;100.00;58812.66;4990180;28;46133;-60
2022/11/04 14:19:56;;;;;;;;;2.00;2.00;;;;;-147.14;100.00;58812.66;4989776;28;45376;-60
2022/11/04 14:22:35;;;;;;;;;3.67;3.67;;;;;-147.14;100.00;58812.66;4993614;28;45428;-60
2022/11/04 14:25:30;;;;;;;;;3.00;3.00;;;;;-147.14;100.00;58812.66;4981176;28;45399;-60
2022/11/04 14:28:09;;;;;;;;;3.00;3.00;;;;;-147.14;100.00;58812.66;4985868;28;45508;-60
2022/11/04 14:30:44;;;;;;;;;3.00;3.00;;;;;-147.14;100.00;58812.66;4990739;28;45495;-60
2022/11/04 14:33:30;;;;;;;;;2.33;2.33;;;;;-147.14;100.00;58812.66;4980942;28;45959;-60
2022/11/04 14:35:56;;;;;;;;;3.00;3.00;;;;;-147.14;100.00;58812.66;4980789;28;45523;-60
2022/11/04 14:38:30;;;;;;;;;4.33;4.00;;;;;-147.14;100.00;58812.66;4995812;28;46473;-60
2022/11/04 14:41:29;;;;;;;;;4.00;4.00;;;;;-147.14;100.00;58812.66;4982815;28;45382;-60
2022/11/04 14:43:58;;;;;;;;;3.67;3.67;;;;;-147.14;100.00;58812.66;4991745;28;45509;-60
2022/11/04 14:46:39;;;;;;;;;2.67;2.67;;;;;-147.14;100.00;58812.66;4992387;28;45526;-61
2022/11/04 14:49:05;;;;;;;;;3.00;3.00;;;;;-147.14;100.00;58812.66;4992289;28;45456;-61
2022/11/04 14:51:33;;;;;;;;;3.00;3.00;;;;;-147.14;100.00;58812.66;4980840;28;45740;-61
2022/11/04 14:54:09;;;;;;;;;3.00;1.33;;;;;-147.14;100.00;58812.66;4990514;28;45480;-60
2022/11/04 14:56:34;;;;;;;;;3.67;3.67;;;;;-147.14;100.00;58812.66;4980606;28;45296;-60
2022/11/04 14:59:04;;;;;;;;;7.00;3.33;;;;;-147.14;100.00;58812.66;4982056;28;69541;-60
2022/11/04 15:01:32;;;;;;;;;2.00;2.00;;;;;-147.14;100.00;58812.66;4981684;28;45511;-60
2022/11/04 15:04:05;;;;;;;;;3.67;1.67;;;;;-147.14;100.00;58812.66;4980657;28;45402;-60
2022/11/04 15:06:30;;;;;;;;;4.33;2.67;;;;;-147.14;100.00;58812.66;4981954;28;45352;-60
2022/11/04 15:08:57;;;;;;;;;1.00;1.00;;;;;-147.14;100.00;58812.66;4985640;28;45386;-60
2022/11/04 15:14:16;;;;;;;;;1.00;1.00;;;;;-147.14;100.00;58812.66;4981084;28;45488;-61
2022/11/04 15:16:44;;;;;;;;;2.00;1.00;;;;;-147.14;100.00;58812.66;4992938;28;45369;-60
2022/11/04 15:19:10;;;;;;;;;1.67;0.00;;;;;-147.14;100.00;58812.66;4997928;28;47217;-60
2022/11/04 15:21:39;;;;;;;;;0.33;0.33;;;;;-147.14;100.00;58812.66;4986296;28;45333;-60
2022/11/04 15:24:05;;;;;;;;;1.33;0.33;;;;;-147.14;100.00;58812.66;4989790;28;45343;-61
2022/11/04 15:26:32;;;;;;;;;0.00;0.00;;;;;-147.14;100.00;58812.66;4980312;28;45436;-61
2022/11/04 15:29:00;;;;;;;;;0.00;0.00;;;;;-147.14;100.00;58812.66;4988314;28;45376;-61
2022/11/04 15:31:28;;;;;;;;;0.00;0.00;;;;;-147.14;100.00;58812.66;4998219;28;45496;-61
2022/11/04 15:33:59;;;;;;;;;1.00;0.00;;;;;-147.14;100.00;58812.66;4988727;28;45326;-61
2022/11/04 15:36:24;;;;;;;;;0.00;0.00;;;;;-147.14;100.00;58812.66;4990993;28;45350;-61
2022/11/04 15:38:58;;;;;;;;;0.00;0.00;;;;;-147.14;100.00;58812.66;4982211;28;45419;-61
2022/11/04 15:44:23;;;;;;;;;0.00;0.00;;;;;-147.14;100.00;58812.66;4986330;28;45450;-61
2022/11/04 15:46:52;;;;;;;;;0.33;0.00;;;;;-147.14;100.00;58812.66;4985007;28;45549;-61
2022/11/04 15:49:28;;;;;;;;;0.00;0.00;;;;;-147.14;100.00;58812.66;4979820;28;45475;-61
2022/11/04 15:52:20;;;;;;;;;0.00;0.00;;;;;-147.14;100.00;58812.66;4982210;28;45329;-61
2022/11/04 15:54:48;;;;;;;;;3.00;1.00;;;;;-147.14;100.00;58812.66;4992650;28;45383;-61
2022/11/04 15:57:25;;;;;;;;;2.00;0.00;;;;;-147.14;100.00;58812.66;4978956;28;45549;-61
2022/11/04 16:00:07;;;;;;;;;1.67;0.00;;;;;-147.14;100.00;58812.66;4982012;28;46390;-61
2022/11/04 16:02:34;;;;;;;;;1.00;1.00;;;;;-147.14;100.00;58812.66;4996437;28;45400;-61
2022/11/04 16:05:09;;;;;;;;;0.00;0.00;;;;;-147.14;100.00;58812.66;4985289;28;45354;-61
2022/11/04 16:07:37;;;;;;;;;1.00;1.00;;;;;-147.14;100.00;58812.66;4980367;28;45627;-61
2022/11/04 16:10:22;;;;;;;;;1.00;1.00;;;;;-147.14;100.00;58812.66;4979986;28;46233;-61
2022/11/04 16:12:56;;;;;;;;;1.67;1.00;;;;;-147.14;100.00;58812.66;4980348;28;45423;-61
2022/11/04 16:15:30;;;;;;;;;1.00;1.00;;;;;-147.14;100.00;58812.66;4979569;28;45466;-61
2022/11/04 16:17:56;;;;;;;;;2.00;2.00;;;;;-147.14;100.00;58812.66;4990790;28;45402;-61
2022/11/04 16:20:21;;;;;;;;;1.00;1.00;;;;;-147.14;100.00;58812.66;4984991;28;55667;-61
2022/11/04 16:22:57;;;;;;;;;2.33;1.00;;;;;-147.14;100.00;58812.66;4985291;28;45410;-61
2022/11/04 16:25:23;;;;;;;;;5.00;1.67;;;;;-147.14;100.00;58812.66;4990868;28;45534;-61
2022/11/04 16:27:49;;;;;;;;;2.67;0.67;;;;;-147.14;100.00;58812.66;4979749;28;45503;-61
2022/11/04 16:30:15;;;;;;;;;4.00;1.00;;;;;-147.14;100.00;58812.66;4991154;28;46513;-62
2022/11/04 16:32:43;;;;;;;;;2.00;1.00;;;;;-147.14;100.00;58812.66;4983794;28;45571;-61
2022/11/04 16:35:25;;;;;;;;;5.00;2.00;;;;;-147.14;100.00;58812.66;4985771;28;45297;-61
2022/11/04 16:37:52;;;;;;;;;1.67;1.67;;;;;-147.14;100.00;58812.66;4993769;28;45326;-61
2022/11/04 16:40:18;;;;;;;;;3.00;2.00;;;;;-147.14;100.00;58812.66;4978480;28;46291;-61
2022/11/04 16:42:44;;;;;;;;;3.00;2.00;;;;;-147.14;100.00;58812.66;4979494;28;45313;-61
2022/11/04 16:45:22;;;;;;;;;4.00;2.00;;;;;-147.14;100.00;58812.66;4979652;28;45538;-61
2022/11/04 16:47:47;;;;;;;;;1.67;1.00;;;;;-147.14;100.00;58812.66;4979172;28;45549;-61
2022/11/04 16:50:15;;;;;;;;;4.00;1.33;;;;;-147.14;100.00;58812.66;4978000;28;45490;-61
2022/11/04 16:52:40;;;;;;;;;2.67;2.00;;;;;-147.14;100.00;58812.66;4993164;28;45495;-61
2022/11/04 16:55:06;;;;;;;;;6.67;2.33;;;;;-147.14;100.00;58812.66;4987555;28;45324;-61
2022/11/04 16:57:32;;;;;;;;;5.00;2.00;;;;;-147.14;100.00;58812.66;4992958;28;45383;-61
2022/11/04 16:59:57;;;;;;;;;2.00;1.00;;;;;-147.14;100.00;58812.66;4985086;28;68308;-61
2022/11/04 17:02:25;;;;;;;;;3.33;2.00;;;;;-147.14;100.00;58812.66;4992613;28;71526;-61
2022/11/04 17:04:50;;;;;;;;;3.00;1.00;;;;;-147.14;100.00;58812.66;4994990;28;45411;-61